Latest Weather Observations for Tidbinbilla

IDN60901

Issued at 6:41 pm EDT Saturday 10 December 2022 (issued every 10 minutes, with the page automatically refreshed every 10 minutes)

About weather observations | Map of Canberra area stations | Latest observations for Canberra area | Other Formats
Station Details ID: 250069 Name: TIDBINBILLA (PCS) Lat: -35.46 Lon: 148.94 Height: 883.0 m

Portable automatic weather stations (PAWS) are operated by other organisations, such as Fire and Emergency Services, and are included here by agreement. Portable stations may be deployed to a location for a short period and their location may be subject to change without notice. Wind observations from these stations are provided from heights of either three (3) or ten (10) metres above ground level (AGL).

Data from the previous 72 hours. | See also: Recent months for locations in Aust Capital Territory
Date/Time
EDT
Temp
°C
App
Temp
°C
Dew
Point
°C
Rel
Hum
%
Delta-T
°C
Wind Press
QNH
hPa
Press
MSL
hPa
Rain since
9am
mm
Dir  Spd
km/h
Gust
km/h
Spd
kts
Gust
kts
10/06:30pm 19.7 15.6 4.5 36 7.7 N 15 20 8 11 1015.5 - 0.0
10/06:20pm 19.4 15.9 5.4 40 7.2 N 13 20 7 11 1015.4 - 0.0
10/06:10pm 18.9 14.6 5.3 41 6.9 N 17 20 9 11 1015.3 - 0.0
10/06:00pm 20.0 15.9 6.2 40 7.2 N 17 20 9 11 1015.4 - 0.0
10/05:50pm 20.9 17.8 7.1 40 7.4 N 13 22 7 12 1015.4 - 0.0
10/05:40pm 21.5 18.2 6.6 38 7.9 N 13 17 7 9 1015.4 - 0.0
10/05:30pm 20.7 16.6 6.1 38 7.6 N 17 24 9 13 1015.6 - 0.0
10/05:20pm 19.0 14.8 5.8 42 6.8 N 17 22 9 12 1015.6 - 0.0
10/05:10pm 19.9 15.3 5.7 39 7.3 NNE 19 26 10 14 1015.6 - 0.0
10/05:00pm 21.8 18.1 7.9 40 7.6 N 17 24 9 13 1015.8 - 0.0
10/04:50pm 21.5 17.8 6.4 37 8.0 N 15 22 8 12 1015.9 - 0.0
10/04:40pm 21.5 17.8 6.5 37 8.0 N 15 20 8 11 1015.9 - 0.0
10/04:30pm 21.4 17.8 6.9 39 7.7 N 15 22 8 12 1016.0 - 0.0
10/04:20pm 22.4 18.5 7.0 37 8.3 N 17 22 9 12 1016.0 - 0.0
10/04:10pm 21.7 17.8 7.3 39 7.8 N 17 19 9 10 1016.1 - 0.0
10/04:00pm 21.9 17.7 7.3 39 7.9 N 19 22 10 12 1016.2 - 0.0
10/03:50pm 23.1 20.6 8.2 38 8.2 N 11 15 6 8 1016.3 - 0.0
10/03:40pm 22.1 19.2 8.2 41 7.6 N 13 20 7 11 1016.4 - 0.0
10/03:30pm 22.2 19.1 7.1 37 8.1 NNE 13 24 7 13 1016.5 - 0.0
10/03:20pm 21.5 17.9 8.3 42 7.2 NNE 17 22 9 12 1016.6 - 0.0
10/03:10pm 21.6 18.9 7.5 40 7.6 NNE 11 17 6 9 1016.7 - 0.0
10/03:00pm 21.3 17.6 7.8 41 7.3 NNE 17 24 9 13 1016.8 - 0.0
10/02:50pm 21.7 18.6 7.4 39 7.7 N 13 17 7 9 1016.9 - 0.0
10/02:40pm 21.6 18.1 7.2 39 7.7 N 15 22 8 12 1017.1 - 0.0
10/02:30pm 21.1 18.7 9.9 48 6.3 N 13 19 7 10 1017.1 - 0.0
10/02:20pm 20.3 17.0 8.0 45 6.7 NE 15 19 8 10 1017.3 - 0.0
10/02:10pm 20.8 17.5 8.1 44 6.9 N 15 20 8 11 1017.5 - 0.0
10/02:00pm 20.4 16.8 8.2 45 6.6 NNE 17 26 9 14 1017.5 - 0.0
10/01:50pm 20.2 17.6 7.7 44 6.7 NNE 11 20 6 11 1017.7 - 0.0
10/01:40pm 20.5 17.7 6.8 41 7.3 N 11 17 6 9 1018.0 - 0.0
10/01:30pm 20.3 16.9 7.7 44 6.8 N 15 19 8 10 1018.2 - 0.0
10/01:20pm 20.2 17.8 7.1 42 7.0 N 9 15 5 8 1018.3 - 0.0
10/01:10pm 20.0 17.5 8.4 47 6.3 N 11 17 6 9 1018.4 - 0.0
10/12:50pm 19.1 16.1 7.8 48 6.1 NNE 13 17 7 9 1018.6 - 0.0
10/12:40pm 19.3 16.7 7.7 47 6.2 NNE 11 19 6 10 1018.6 - 0.0
10/12:20pm 18.5 16.1 8.7 53 5.3 NNE 11 17 6 9 1018.9 - 0.0
10/12:10pm 18.0 15.5 6.6 47 5.9 NW 9 15 5 8 1019.1 - 0.0
10/12:00pm 17.9 16.4 6.6 47 5.9 WNW 4 13 2 7 1019.2 - 0.0
10/11:50am 18.8 16.2 7.6 48 6.0 N 11 17 6 9 1019.3 - 0.0
10/11:40am 17.9 14.8 7.2 49 5.6 N 13 19 7 10 1019.2 - 0.0
10/11:30am 17.9 15.4 6.7 48 5.8 N 9 13 5 7 1019.4 - 0.0
10/11:20am 17.8 15.2 6.1 46 6.0 N 9 13 5 7 1019.5 - 0.0
10/11:10am 17.4 14.2 5.1 44 6.2 N 11 17 6 9 1019.4 - 0.0
10/11:00am 18.0 15.1 6.4 46 6.0 N 11 15 6 8 1019.4 - 0.0
10/10:50am 17.5 15.2 5.9 46 5.9 N 7 13 4 7 1019.4 - 0.0
10/10:40am 16.6 13.9 5.5 48 5.6 NNE 9 13 5 7 1019.5 - 0.0
10/10:30am 16.5 13.2 4.7 45 5.9 N 11 15 6 8 1019.7 - 0.0
10/10:20am 15.5 13.3 6.2 54 4.7 NNE 7 17 4 9 1019.7 - 0.0
10/10:10am 15.4 12.0 4.2 47 5.5 NNE 11 13 6 7 1019.9 - 0.0
10/10:00am 16.2 12.9 4.7 46 5.7 N 11 15 6 8 1019.9 - 0.0
10/09:50am 14.9 12.4 4.9 51 4.9 N 7 15 4 8 1019.9 - 0.0
10/09:40am 14.1 11.4 3.6 49 5.0 NE 7 11 4 6 1020.0 - 0.0
10/09:30am 14.4 11.8 4.1 50 5.0 NNE 7 13 4 7 1020.1 - 0.0
10/09:20am 14.5 11.8 3.7 48 5.2 N 7 11 4 6 1020.1 - 0.0
10/09:10am 13.6 10.8 2.1 45 5.3 NNE 6 11 3 6 1020.3 - 0.0
10/09:00am 13.1 9.9 3.2 51 4.6 NNE 9 11 5 6 1020.4 - 0.0
10/08:50am 13.6 10.3 2.5 47 5.1 NNE 9 13 5 7 1020.4 - 0.0
10/08:40am 13.6 10.9 3.9 52 4.6 NNW 7 11 4 6 1020.4 - 0.0
10/08:30am 13.1 11.1 4.2 54 4.3 N 4 6 2 3 1020.5 - 0.0
10/08:20am 12.5 10.2 2.5 50 4.6 NNE 4 6 2 3 1020.4 - 0.0
10/08:10am 12.1 10.6 2.9 53 4.2 CALM 0 4 0 2 1020.4 - 0.0
10/08:00am 11.2 9.1 1.7 52 4.2 WSW 2 4 1 2 1020.4 - 0.0
10/07:50am 10.7 8.4 0.7 50 4.3 SW 2 4 1 2 1020.3 - 0.0
10/07:40am 10.4 8.2 0.9 52 4.1 SW 2 4 1 2 1020.1 - 0.0
10/07:30am 9.4 7.0 0.0 52 4.0 SSW 2 4 1 2 1020.0 - 0.0
10/07:20am 8.7 6.3 2.0 63 2.9 SSW 4 6 2 3 1019.9 - 0.0
10/07:10am 8.1 5.6 1.3 62 2.9 S 4 6 2 3 1019.8 - 0.0
10/07:00am 7.3 4.9 2.0 69 2.3 S 4 6 2 3 1019.7 - 0.0
10/06:50am 7.0 4.8 1.0 65 2.5 S 2 4 1 2 1019.5 - 0.0
10/06:40am 6.2 3.7 1.8 73 1.9 SSW 4 4 2 2 1019.3 - 0.0
10/06:30am 5.7 3.5 0.8 71 2.0 WSW 2 4 1 2 1019.1 - 0.0
10/06:20am 5.8 4.0 0.9 71 2.0 CALM 0 4 0 2 1019.0 - 0.0
10/06:10am 6.1 3.0 0.2 66 2.4 NE 6 9 3 5 1018.9 - 0.0
10/06:00am 6.0 2.6 -0.3 64 2.6 ENE 7 9 4 5 1018.9 - 0.0
10/05:50am 6.1 2.8 0.2 66 2.4 ENE 7 7 4 4 1018.8 - 0.0
10/05:40am 6.0 2.8 -0.2 64 2.5 E 6 7 3 4 1018.7 - 0.0
10/05:30am 5.6 2.6 0.6 70 2.1 SSE 6 7 3 4 1018.5 - 0.0
10/05:20am 5.7 2.5 0.9 71 2.0 S 7 9 4 5 1018.4 - 0.0
10/05:10am 5.7 2.5 0.8 71 2.0 S 7 7 4 4 1018.4 - 0.0
10/05:00am 5.7 3.1 1.1 72 1.9 S 4 6 2 3 1018.2 - 0.0
10/04:50am 5.7 3.1 0.9 71 2.0 S 4 4 2 2 1018.2 - 0.0
10/04:40am 5.9 3.3 1.1 71 2.0 SSW 4 4 2 2 1018.1 - 0.0
10/04:30am 6.1 3.9 1.2 71 2.1 S 2 4 1 2 1018.2 - 0.0
10/04:20am 6.4 4.2 1.1 69 2.2 SSE 2 4 1 2 1018.2 - 0.0
10/04:10am 6.6 4.1 1.8 71 2.1 SSE 4 4 2 2 1018.1 - 0.0
10/04:00am 6.7 4.3 2.0 72 2.0 SE 4 6 2 3 1018.1 - 0.0
10/03:50am 6.8 4.7 1.5 69 2.3 S 2 4 1 2 1018.2 - 0.0
10/03:40am 6.9 4.5 1.9 70 2.2 S 4 6 2 3 1018.2 - 0.0
10/03:30am 7.0 4.7 2.8 74 1.9 S 4 4 2 2 1018.2 - 0.0
10/03:20am 7.3 5.4 2.6 72 2.1 SSW 2 4 1 2 1018.3 - 0.0
10/03:10am 7.5 5.9 2.2 69 2.3 CALM 0 0 0 0 1018.3 - 0.0
10/03:00am 7.5 5.7 1.4 65 2.6 CALM 0 0 0 0 1018.3 - 0.0
10/02:50am 7.6 5.9 1.7 66 2.5 CALM 0 2 0 1 1018.4 - 0.0
10/02:40am 7.6 4.6 1.1 63 2.8 E 6 7 3 4 1018.4 - 0.0
10/02:30am 7.7 4.5 1.0 62 2.8 E 7 9 4 5 1018.4 - 0.0
10/02:20am 7.9 5.3 1.0 61 2.9 ESE 4 11 2 6 1018.6 - 0.0
10/02:10am 8.0 5.0 1.0 61 3.0 ESE 6 9 3 5 1018.7 - 0.0
10/02:00am 8.2 5.8 2.1 65 2.7 SE 4 7 2 4 1018.7 - 0.0
10/01:50am 8.4 6.1 2.6 67 2.6 NE 4 7 2 4 1018.8 - 0.0
10/01:40am 8.5 6.1 2.3 65 2.7 NE 4 7 2 4 1018.9 - 0.0
10/01:30am 8.5 6.1 2.1 64 2.8 E 4 9 2 5 1019.1 - 0.0
10/01:20am 8.6 5.6 1.8 62 3.0 E 7 9 4 5 1019.1 - 0.0
10/01:10am 8.6 5.6 1.7 62 3.0 E 7 9 4 5 1019.2 - 0.0
10/01:00am 8.6 5.9 2.4 65 2.7 ENE 6 7 3 4 1019.2 - 0.0
10/12:50am 8.6 5.4 2.8 67 2.6 NE 9 13 5 7 1019.2 - 0.0
10/12:40am 8.7 5.9 2.9 67 2.6 ENE 7 9 4 5 1019.3 - 0.0
10/12:30am 8.8 6.2 3.0 67 2.6 E 6 11 3 6 1019.3 - 0.0
10/12:20am 8.8 6.2 3.3 68 2.5 ENE 6 11 3 6 1019.3 - 0.0
10/12:10am 8.9 6.7 3.4 68 2.5 E 4 9 2 5 1019.2 - 0.0
10/12:00am 8.9 6.2 3.6 69 2.4 ESE 7 11 4 6 1019.3 - 0.0
 
Date/Time
EDT
Temp
°C
App
Temp
°C
Dew
Point
°C
Rel
Hum
%
Delta-T
°C
Wind Press
QNH
hPa
Press
MSL
hPa
Rain since
9am
mm
Dir  Spd
km/h
Gust
km/h
Spd
kts
Gust
kts
09/11:50pm 8.9 6.2 3.7 70 2.4 E 7 9 4 5 1019.3 - 0.0
09/11:40pm 9.0 6.3 3.7 69 2.4 E 7 11 4 6 1019.2 - 0.0
09/11:30pm 9.1 6.5 4.0 70 2.4 NE 7 9 4 5 1019.1 - 0.0
09/11:20pm 9.3 6.6 3.8 68 2.5 E 7 11 4 6 1019.0 - 0.0
09/11:10pm 9.4 6.4 3.9 68 2.5 ENE 9 13 5 7 1018.9 - 0.0
09/11:00pm 9.5 6.1 4.0 68 2.5 NE 11 15 6 8 1018.8 - 0.0
09/10:50pm 9.6 6.6 4.2 69 2.5 ENE 9 13 5 7 1018.8 - 0.0
09/10:40pm 9.6 6.2 4.2 69 2.5 NE 11 15 6 8 1018.7 - 0.0
09/10:30pm 9.8 6.1 4.5 69 2.5 NNE 13 17 7 9 1018.6 - 0.0
09/10:20pm 10.0 6.3 4.3 67 2.7 NNE 13 17 7 9 1018.6 - 0.0
09/10:10pm 10.3 6.6 4.7 68 2.7 NNE 13 17 7 9 1018.5 - 0.0
09/10:00pm 10.6 7.3 4.6 66 2.8 NE 11 17 6 9 1018.4 - 0.0
09/09:50pm 10.9 7.4 5.3 68 2.7 NNE 13 19 7 10 1018.1 - 0.0
09/09:40pm 11.1 7.7 6.1 71 2.5 NNE 13 15 7 8 1018.0 - 0.0
09/09:30pm 11.3 8.3 6.2 71 2.5 NNE 11 15 6 8 1017.8 - 0.0
09/09:20pm 11.5 8.1 6.0 69 2.7 NNE 13 15 7 8 1017.5 - 0.0
09/09:10pm 11.7 8.7 5.9 67 2.8 NNE 11 17 6 9 1017.3 - 0.0
09/09:00pm 12.0 8.7 6.2 67 2.9 NNE 13 15 7 8 1017.1 - 0.0
09/08:50pm 12.3 9.3 6.2 66 3.0 N 11 13 6 7 1017.0 - 0.0
09/08:40pm 12.5 9.5 6.2 65 3.1 NNE 11 15 6 8 1016.8 - 0.0
09/08:30pm 12.8 9.0 5.9 63 3.4 NE 15 19 8 10 1016.6 - 0.0
09/08:20pm 13.2 8.6 5.7 60 3.7 NE 19 22 10 12 1016.4 - 0.0
09/08:10pm 13.7 9.4 5.4 57 4.1 NE 17 24 9 13 1016.1 - 0.0
09/08:00pm 14.2 11.1 3.7 49 5.0 ENE 9 15 5 8 1015.9 - 0.0
09/07:50pm 14.0 11.7 4.7 53 4.5 E 6 7 3 4 1015.7 - 0.0
09/07:40pm 14.1 13.5 7.6 65 3.4 CALM 0 2 0 1 1015.6 - 0.0
09/07:30pm 14.3 13.2 8.4 67 3.1 SSW 4 6 2 3 1015.4 - 0.0
09/07:20pm 14.6 13.9 8.7 67 3.1 N 2 4 1 2 1015.2 - 0.0
09/07:10pm 14.7 13.5 8.0 64 3.5 NE 4 4 2 2 1015.1 - 0.0
09/07:00pm 15.1 13.8 7.5 60 3.9 ESE 4 6 2 3 1015.0 - 0.0
09/06:50pm 15.3 15.0 8.8 65 3.5 CALM 0 0 0 0 1014.9 - 0.0
09/06:40pm 15.5 14.3 6.3 54 4.7 E 2 4 1 2 1014.7 - 0.0
09/06:30pm 15.5 14.4 6.8 56 4.5 ENE 2 4 1 2 1014.6 - 0.0
09/06:20pm 15.6 14.5 6.9 56 4.5 E 2 4 1 2 1014.4 - 0.0
09/06:10pm 15.6 14.3 6.0 53 4.9 ESE 2 4 1 2 1014.4 - 0.0
09/06:00pm 15.6 14.5 6.9 56 4.5 ENE 2 4 1 2 1014.3 - 0.0
09/05:50pm 15.7 14.3 5.7 51 5.0 NE 2 4 1 2 1014.2 - 0.0
09/05:40pm 15.7 15.0 7.0 56 4.5 CALM 0 2 0 1 1014.2 - 0.0
09/05:30pm 15.8 14.1 4.2 46 5.7 NNE 2 4 1 2 1014.2 - 0.0
09/05:20pm 16.0 14.2 5.6 50 5.2 NE 4 9 2 5 1014.2 - 0.0
09/05:10pm 16.6 14.2 4.2 43 6.1 N 6 9 3 5 1014.2 - 0.0
09/05:00pm 17.2 14.9 5.8 47 5.8 N 7 9 4 5 1014.2 - 0.0
09/04:50pm 17.5 15.2 4.9 43 6.3 N 6 9 3 5 1014.2 - 0.0
09/04:40pm 17.8 16.5 6.0 46 6.1 N 2 6 1 3 1014.1 - 0.0
09/04:30pm 18.0 15.6 4.4 40 6.8 NNW 6 9 3 5 1014.2 - 0.0
09/04:20pm 17.0 15.8 6.5 50 5.4 N 2 9 1 5 1014.3 - 0.0
09/04:10pm 16.7 15.4 5.8 48 5.5 ENE 2 4 1 2 1014.3 - 0.0
09/04:00pm 16.4 13.8 4.0 43 6.1 N 7 11 4 6 1014.2 - 0.0
09/03:50pm 16.2 13.3 4.7 46 5.7 NNE 9 11 5 6 1014.2 - 0.0
09/03:40pm 17.3 14.4 4.8 43 6.2 NNE 9 13 5 7 1014.2 - 0.0
09/03:30pm 19.2 17.2 7.0 45 6.4 N 7 11 4 6 1014.2 - 0.0
09/03:20pm 20.5 17.3 5.2 36 7.9 NNW 11 15 6 8 1014.2 - 0.0
09/03:10pm 18.3 15.4 4.8 41 6.8 N 9 13 5 7 1014.3 - 0.0
09/03:00pm 17.9 14.9 4.0 39 6.9 N 9 15 5 8 1014.4 - 0.0
09/02:50pm 18.7 16.0 3.5 36 7.5 N 7 13 4 7 1014.3 - 0.0
09/02:40pm 17.6 15.3 5.5 45 6.1 NNE 7 13 4 7 1014.4 - 0.0
09/02:30pm 18.3 15.4 4.8 41 6.8 N 9 13 5 7 1014.5 - 0.0
09/02:20pm 19.2 16.8 5.3 40 7.1 NNW 7 11 4 6 1014.6 - 0.0
09/02:10pm 19.3 16.9 2.2 32 8.2 NNE 4 7 2 4 1014.6 - 0.0
09/02:00pm 17.7 15.4 5.7 45 6.1 NNW 7 9 4 5 1014.6 - 0.0
09/01:50pm 17.2 15.5 4.2 42 6.4 SE 2 4 1 2 1014.6 - 0.0
09/01:40pm 15.7 13.1 3.2 43 6.0 N 6 13 3 7 1014.8 - 0.0
09/01:30pm 15.4 12.8 4.0 46 5.5 NNE 7 11 4 6 1014.7 - 0.0
09/01:20pm 15.7 11.6 2.3 40 6.3 NNE 13 19 7 10 1014.8 - 0.0
09/01:00pm 18.3 15.2 3.6 37 7.2 N 9 17 5 9 1014.9 - 0.0
09/12:50pm 18.8 16.2 4.1 37 7.3 N 7 11 4 6 1014.9 - 0.0
09/12:40pm 17.6 15.3 5.5 45 6.1 N 7 9 4 5 1014.9 - 0.0
09/12:30pm 16.9 14.3 4.2 43 6.3 N 7 11 4 6 1015.0 - 0.0
09/12:20pm 16.7 13.4 4.3 43 6.1 N 11 17 6 9 1015.1 - 0.0
09/12:10pm 18.3 15.3 2.1 34 7.7 N 7 15 4 8 1015.0 - 0.0
09/12:00pm 16.1 13.6 4.6 46 5.7 NE 7 13 4 7 1015.0 - 0.0
09/11:50am 16.6 12.3 3.1 40 6.5 NNE 15 19 8 10 1015.1 - 0.0
09/11:40am 15.4 12.6 2.3 41 6.1 NNE 6 13 3 7 1015.3 - 0.0
09/11:30am 15.2 11.8 1.8 40 6.2 NE 9 17 5 9 1015.3 - 0.0
09/11:20am 14.8 12.1 3.7 47 5.3 N 7 11 4 6 1015.3 - 0.0
09/11:10am 14.9 11.0 1.4 40 6.2 N 11 15 6 8 1015.4 - 0.0
09/11:00am 14.7 11.6 1.4 40 6.1 NNE 7 15 4 8 1015.4 - 0.0
09/10:50am 14.6 10.8 2.0 42 5.8 N 11 15 6 8 1015.5 - 0.0
09/10:40am 15.3 11.8 3.4 45 5.7 N 11 19 6 10 1015.5 - 0.0
09/10:20am 14.6 10.7 3.3 46 5.4 N 13 19 7 10 1015.6 - 0.0
09/10:10am 14.3 10.7 3.1 47 5.3 N 11 17 6 9 1015.6 - 0.0
09/10:00am 13.6 10.5 1.6 44 5.5 NNE 7 13 4 7 1015.8 - 0.0
09/09:50am 12.7 9.6 1.1 45 5.2 N 7 11 4 6 1015.7 - 0.0
09/09:40am 13.3 9.5 1.6 45 5.3 NNE 11 15 6 8 1015.7 - 0.0
09/09:30am 13.2 9.9 2.7 49 4.9 N 9 13 5 7 1015.7 - 0.0
09/09:20am 12.4 9.3 3.8 55 4.1 NNW 9 13 5 7 1015.8 - 0.0
09/09:10am 11.8 9.2 3.2 55 4.0 NNW 6 9 3 5 1015.9 - 0.0
09/09:00am 11.4 8.7 2.7 55 4.0 NNW 6 9 3 5 1015.9 - 0.0
09/08:50am 10.8 8.2 3.0 58 3.6 NNW 6 7 3 4 1016.0 - 0.0
09/08:40am 10.3 7.5 3.1 61 3.3 NNW 7 9 4 5 1016.0 - 0.0
09/08:30am 9.9 7.7 3.6 65 2.9 N 4 9 2 5 1016.0 - 0.0
09/08:20am 9.3 7.4 2.7 63 3.0 SW 2 2 1 1 1015.9 - 0.0
09/08:10am 8.9 7.3 2.2 63 3.0 CALM 0 2 0 1 1015.9 - 0.0
09/08:00am 7.9 6.3 2.3 68 2.5 CALM 0 2 0 1 1015.7 - 0.0
09/07:50am 7.3 5.6 2.1 69 2.3 CALM 0 2 0 1 1015.4 - 0.0
09/07:40am 6.9 4.8 2.0 71 2.1 WSW 2 4 1 2 1015.4 - 0.0
09/07:30am 6.8 4.7 2.0 71 2.1 W 2 6 1 3 1015.3 - 0.0
09/07:20am 7.1 5.3 1.4 67 2.4 CALM 0 0 0 0 1014.9 - 0.0
09/07:10am 6.2 4.4 1.1 70 2.1 CALM 0 0 0 0 1014.7 - 0.0
09/07:00am 4.7 2.4 0.7 75 1.6 NNW 2 4 1 2 1014.5 - 0.0
09/06:50am 3.2 0.8 -0.2 78 1.3 S 2 4 1 2 1014.3 - 0.0
09/06:40am 2.5 -0.6 0.1 84 0.9 SSW 6 6 3 3 1014.3 - 0.0
09/06:30am 2.4 -0.7 0.2 85 0.9 SSW 6 7 3 4 1014.3 - 0.0
09/06:20am 2.6 0.3 0.3 85 0.9 SW 2 4 1 2 1014.3 - 0.0
09/06:10am 3.0 0.6 0.0 81 1.2 S 2 4 1 2 1014.0 - 0.0
09/06:00am 3.1 -0.1 -0.3 78 1.3 ESE 6 9 3 5 1014.1 - 0.0
09/05:50am 3.2 0.0 -0.2 78 1.3 ENE 6 9 3 5 1014.1 - 0.0
09/05:40am 3.3 0.2 -0.1 78 1.3 NNE 6 9 3 5 1014.0 - 0.0
09/05:30am 3.2 1.2 0.0 79 1.3 CALM 0 0 0 0 1013.9 - 0.0
09/05:20am 3.1 0.7 0.0 80 1.2 S 2 4 1 2 1013.9 - 0.0
09/05:10am 3.2 0.4 -0.1 79 1.3 SW 4 7 2 4 1013.9 - 0.0
09/05:00am 3.0 -0.3 0.0 81 1.2 S 7 9 4 5 1013.8 - 0.0
09/04:50am 2.9 -0.2 0.0 81 1.1 S 6 7 3 4 1013.9 - 0.0
09/04:40am 3.1 0.8 0.1 81 1.2 SW 2 4 1 2 1013.9 - 0.0
09/04:30am 3.2 1.2 -0.2 78 1.3 CALM 0 2 0 1 1013.7 - 0.0
09/04:20am 3.1 1.1 -0.1 79 1.3 CALM 0 0 0 0 1013.5 - 0.0
09/04:10am 3.2 1.2 -0.1 79 1.3 CALM 0 2 0 1 1013.5 - 0.0
09/04:00am 3.5 1.2 0.2 79 1.3 NNE 2 4 1 2 1013.6 - 0.0
09/03:50am 3.7 1.4 0.2 78 1.4 N 2 4 1 2 1013.6 - 0.0
09/03:40am 3.8 1.8 0.1 77 1.5 CALM 0 0 0 0 1013.6 - 0.0
09/03:30am 4.0 2.0 0.1 76 1.6 CALM 0 0 0 0 1013.6 - 0.0
09/03:20am 4.2 1.9 0.1 75 1.6 SW 2 4 1 2 1013.5 - 0.0
09/03:10am 4.0 1.6 0.0 75 1.6 S 2 4 1 2 1013.6 - 0.0
09/03:00am 4.1 1.4 0.1 75 1.6 S 4 7 2 4 1013.6 - 0.0
09/02:50am 4.0 0.9 0.3 77 1.5 S 6 7 3 4 1013.7 - 0.0
09/02:40am 3.9 0.6 0.3 77 1.4 S 7 7 4 4 1013.6 - 0.0
09/02:30am 3.8 0.5 0.3 78 1.4 S 7 7 4 4 1013.6 - 0.0
09/02:20am 3.7 0.7 0.5 79 1.3 S 6 7 3 4 1013.7 - 0.0
09/02:10am 4.0 1.3 0.6 78 1.4 SW 4 6 2 3 1013.8 - 0.0
09/02:00am 4.3 1.6 0.5 76 1.5 SW 4 4 2 2 1013.8 - 0.0
09/01:50am 4.4 2.4 0.2 74 1.7 CALM 0 4 0 2 1013.8 - 0.0
09/01:40am 4.6 2.3 0.5 75 1.7 N 2 4 1 2 1013.7 - 0.0
09/01:30am 5.1 3.2 0.5 72 1.9 CALM 0 4 0 2 1013.7 - 0.0
09/01:20am 5.6 3.3 0.6 70 2.1 NNW 2 4 1 2 1013.7 - 0.0
09/01:10am 6.3 4.0 0.2 65 2.5 NE 2 4 1 2 1013.7 - 0.0
09/01:00am 6.4 4.0 -0.1 63 2.7 SSW 2 4 1 2 1013.8 - 0.0
09/12:50am 6.5 4.1 -0.3 62 2.8 SW 2 4 1 2 1014.0 - 0.0
09/12:40am 6.4 4.0 -0.3 62 2.7 SE 2 4 1 2 1014.2 - 0.0
09/12:30am 6.4 4.0 -0.2 62 2.7 WSW 2 2 1 1 1014.3 - 0.0
09/12:20am 6.2 3.4 -0.6 62 2.7 S 4 4 2 2 1014.3 - 0.0
09/12:10am 6.2 3.5 0.0 64 2.5 SSW 4 4 2 2 1014.4 - 0.0
09/12:00am 6.2 3.8 -0.4 62 2.7 SSE 2 6 1 3 1014.3 - 0.0
 
Date/Time
EDT
Temp
°C
App
Temp
°C
Dew
Point
°C
Rel
Hum
%
Delta-T
°C
Wind Press
QNH
hPa
Press
MSL
hPa
Rain since
9am
mm
Dir  Spd
km/h
Gust
km/h
Spd
kts
Gust
kts
08/11:50pm 6.3 4.0 0.1 64 2.5 ESE 2 4 1 2 1014.3 - 0.0
08/11:40pm 6.6 4.3 0.4 64 2.6 N 2 4 1 2 1014.3 - 0.0
08/11:30pm 7.1 3.9 -0.5 58 3.1 ESE 6 9 3 5 1014.3 - 0.0
08/11:20pm 6.9 4.1 -0.6 59 3.0 ENE 4 6 2 3 1014.3 - 0.0
08/11:10pm 6.6 2.9 -0.1 62 2.7 NNE 9 11 5 6 1014.3 - 0.0
08/11:00pm 7.6 4.3 0.3 60 3.0 N 7 9 4 5 1014.2 - 0.0
08/10:50pm 8.1 4.3 -0.9 53 3.7 S 9 11 5 6 1014.0 - 0.0
08/10:40pm 7.7 4.6 -0.1 58 3.2 SSE 6 9 3 5 1013.9 - 0.0
08/10:30pm 8.0 5.5 -0.8 54 3.6 NNE 2 4 1 2 1014.0 - 0.0
08/10:20pm 8.3 5.8 -1.0 52 3.8 WSW 2 6 1 3 1014.0 - 0.0
08/10:10pm 8.4 5.9 -1.2 51 3.9 S 2 6 1 3 1013.8 - 0.0
08/10:00pm 8.3 5.4 -0.8 52 3.7 S 4 7 2 4 1013.8 - 0.0
08/09:50pm 8.3 5.1 -0.7 53 3.7 SSE 6 7 3 4 1013.7 - 0.0
08/09:40pm 8.8 6.0 -0.2 53 3.8 SE 4 6 2 3 1013.5 - 0.0
08/09:30pm 9.3 6.4 -0.8 49 4.2 S 4 7 2 4 1013.3 - 0.0
08/09:20pm 9.6 6.2 -0.8 48 4.3 S 7 9 4 5 1013.2 - 0.0
08/09:10pm 9.9 6.1 -0.8 47 4.5 SSW 9 13 5 7 1012.9 - 0.0
08/09:00pm 10.1 5.5 -1.1 45 4.6 S 13 15 7 8 1012.8 - 0.0
08/08:50pm 10.2 6.0 -1.2 45 4.7 S 11 15 6 8 1012.6 - 0.0
08/08:40pm 10.2 6.3 -1.3 44 4.7 S 9 13 5 7 1012.5 - 0.0
08/08:30pm 10.2 6.0 -0.9 46 4.6 SSW 11 13 6 7 1012.4 - 0.0
08/08:20pm 10.4 5.9 -0.5 47 4.6 SSW 13 15 7 8 1012.1 - 0.0
08/08:10pm 10.8 6.2 -1.0 44 4.9 SSW 13 15 7 8 1012.1 - 0.0
08/08:00pm 11.2 5.8 -1.4 41 5.2 SSW 17 19 9 10 1011.8 - 0.0
08/07:50pm 11.6 6.7 -0.6 43 5.2 SSW 15 19 8 10 1011.8 - 0.0
08/07:40pm 12.4 8.0 0.5 44 5.2 SW 13 17 7 9 1011.5 - 0.0
08/07:30pm 12.9 7.8 0.8 43 5.4 SW 17 20 9 11 1011.3 - 0.0
08/07:20pm 14.6 9.3 -0.9 34 6.7 SW 17 24 9 13 1011.1 - 0.0
08/07:10pm 14.5 8.7 -1.3 33 6.8 SW 19 22 10 12 1011.0 - 0.0
08/07:00pm 13.6 8.6 -1.2 36 6.3 SW 15 20 8 11 1010.8 - 0.0
08/06:50pm 13.6 7.7 -1.1 36 6.3 SW 20 24 11 13 1010.6 - 0.0
08/06:40pm 15.6 10.4 0.0 34 7.0 SW 17 20 9 11 1010.4 - 0.0
08/06:30pm 15.4 9.7 -0.6 33 7.1 SW 19 22 10 12 1010.3 - 0.0
08/06:20pm 16.4 10.8 0.2 33 7.3 SW 19 24 10 13 1010.1 - 0.0
08/06:10pm 16.8 11.1 -0.4 31 7.7 SW 19 26 10 14 1010.1 - 0.0
08/06:00pm 16.8 12.1 1.0 34 7.3 SW 15 22 8 12 1010.1 - 0.0
08/05:50pm 16.7 11.2 0.6 33 7.4 SW 19 22 10 12 1010.0 - 0.0
08/05:40pm 16.4 11.0 -1.1 30 7.7 SW 17 20 9 11 1009.9 - 0.0
08/05:30pm 16.3 10.3 -1.2 30 7.7 SW 20 26 11 14 1009.7 - 0.0
08/05:00pm 17.4 12.1 -0.7 29 8.1 SW 17 24 9 13 1009.6 - 0.0
08/04:50pm 17.5 11.2 -1.0 28 8.2 SW 22 26 12 14 1009.6 - 0.0
08/04:40pm 17.5 11.6 -1.0 28 8.2 SW 20 28 11 15 1009.5 - 0.0
08/04:30pm 17.0 11.4 -0.2 31 7.7 SW 19 20 10 11 1009.5 - 0.0
08/04:20pm 16.8 12.4 0.1 32 7.6 SW 13 20 7 11 1009.5 - 0.0
08/04:10pm 17.2 11.7 0.8 33 7.6 SW 19 24 10 13 1009.5 - 0.0
08/04:00pm 17.9 12.0 -1.1 27 8.5 WSW 20 22 11 12 1009.6 - 0.0
08/03:50pm 17.8 11.1 -1.4 27 8.5 SW 24 30 13 16 1009.5 - 0.0
08/03:40pm 17.3 11.0 -0.7 29 8.0 SW 22 30 12 16 1009.4 - 0.0
08/03:30pm 17.2 10.9 -0.9 29 8.1 SW 22 32 12 17 1009.3 - 0.0
08/03:20pm 17.2 10.6 -0.2 30 7.9 SW 24 32 13 17 1009.4 - 0.0
08/03:10pm 17.6 11.2 -1.4 27 8.4 SW 22 33 12 18 1009.2 - 0.0
08/03:00pm 17.4 12.4 -1.5 27 8.3 SSW 15 28 8 15 1009.3 - 0.0
08/02:50pm 16.7 9.6 -1.3 29 7.9 SSW 26 33 14 18 1009.4 - 0.0
08/02:40pm 16.6 9.4 -2.0 28 8.0 SSW 26 35 14 19 1009.4 - 0.0
08/02:30pm 17.1 11.2 -1.9 27 8.3 SSW 19 28 10 15 1009.3 - 0.0
08/02:20pm 15.7 10.8 -0.6 33 7.2 SSW 15 28 8 15 1009.5 - 0.0
08/02:10pm 16.5 10.1 -1.7 29 7.9 SSW 22 33 12 18 1009.3 - 0.0
08/02:00pm 16.5 11.6 -0.7 31 7.6 WSW 15 26 8 14 1009.3 - 0.0
08/01:50pm 15.7 9.6 0.6 36 6.8 SW 22 30 12 16 1009.3 - 0.0
08/01:40pm 15.4 9.4 -1.5 31 7.3 SW 20 28 11 15 1009.3 - 0.0
08/01:30pm 16.3 9.6 -1.0 30 7.6 SW 24 32 13 17 1009.4 - 0.0
08/01:20pm 16.4 10.1 -1.2 30 7.7 SW 22 26 12 14 1009.5 - 0.0
08/01:10pm 15.6 9.4 -0.5 33 7.1 SSW 22 32 12 17 1009.5 - 0.0
08/01:00pm 15.5 8.7 -1.9 30 7.5 SW 24 30 13 16 1009.5 - 0.0
08/12:50pm 15.3 8.4 -2.6 29 7.6 SW 24 33 13 18 1009.2 - 0.0
08/12:40pm 14.9 7.0 -1.9 31 7.2 SW 30 37 16 20 1009.1 - 0.0
08/12:30pm 15.0 7.6 -0.7 34 6.9 SW 28 33 15 18 1009.1 - 0.0
08/12:20pm 14.7 7.2 -1.5 33 7.0 SW 28 35 15 19 1009.0 - 0.0
08/12:10pm 14.5 6.1 -2.6 30 7.2 SW 32 33 17 18 1009.0 - 0.0
08/12:00pm 14.4 6.0 -2.6 31 7.1 SW 32 35 17 19 1008.8 - 0.0
08/11:50am 14.3 6.4 -1.3 34 6.7 SW 30 37 16 20 1008.9 - 0.0
08/11:40am 14.5 6.8 -3.1 29 7.3 SSW 28 33 15 18 1008.8 - 0.0
08/11:30am 14.6 7.3 -2.6 30 7.2 SW 26 32 14 17 1008.8 - 0.0
08/11:20am 13.9 6.5 -0.6 37 6.3 SW 28 33 15 18 1008.6 - 0.0
08/11:10am 13.8 5.8 -2.6 32 6.8 SW 30 39 16 21 1008.7 - 0.0
08/11:00am 13.8 6.6 -2.2 33 6.7 SW 26 35 14 19 1008.6 - 0.0
08/10:50am 14.0 6.5 -1.4 34 6.6 SW 28 33 15 18 1008.5 - 0.0
08/10:40am 13.9 7.9 -1.2 35 6.5 SW 20 28 11 15 1008.4 - 0.0
08/10:30am 13.4 7.2 -0.6 38 6.1 SSW 22 33 12 18 1008.4 - 0.0
08/10:20am 13.1 5.6 -1.1 37 6.1 SSW 28 35 15 19 1008.4 - 0.0
08/10:10am 13.5 7.1 -2.0 34 6.5 SSW 22 26 12 14 1008.3 - 0.0
08/10:00am 13.2 7.0 0.0 40 5.8 SW 22 28 12 15 1008.3 - 0.0
08/09:50am 12.9 7.2 -0.8 39 5.9 WSW 19 26 10 14 1008.4 - 0.0
08/09:40am 12.8 6.6 -0.4 40 5.7 SW 22 30 12 16 1008.4 - 0.0
08/09:30am 12.5 5.8 -1.0 39 5.7 SW 24 28 13 15 1008.2 - 0.0
08/09:20am 12.6 6.7 -0.6 40 5.7 SW 20 28 11 15 1008.2 - 0.0
08/09:10am 12.3 6.4 -0.5 41 5.5 SW 20 26 11 14 1008.3 - 0.0
08/09:00am 12.2 6.6 0.0 43 5.3 SW 19 22 10 12 1008.1 - 0.6
08/08:50am 11.7 6.0 0.5 46 4.9 SW 20 26 11 14 1008.0 - 0.6
08/08:40am 11.5 5.7 0.1 45 4.9 SW 20 28 11 15 1007.9 - 0.6
08/08:30am 11.4 5.4 -1.2 41 5.3 SSW 20 26 11 14 1007.8 - 0.6
08/08:20am 11.2 6.0 0.4 47 4.7 SSW 17 22 9 12 1007.8 - 0.6
08/08:10am 10.8 4.6 0.0 47 4.6 SSW 22 32 12 17 1007.6 - 0.6
08/08:00am 10.6 5.0 -0.2 47 4.6 SSW 19 28 10 15 1007.4 - 0.6
08/07:50am 10.2 4.4 -0.3 48 4.4 SSW 20 24 11 13 1007.2 - 0.6
08/07:40am 10.0 3.7 -0.9 46 4.5 SSW 22 26 12 14 1007.0 - 0.6
08/07:30am 9.9 5.8 -0.4 48 4.3 SW 11 15 6 8 1006.8 - 0.6
08/07:20am 9.5 5.0 -0.6 49 4.2 SSW 13 17 7 9 1006.8 - 0.6
08/07:10am 9.0 3.7 -0.8 50 4.0 SW 17 22 9 12 1006.7 - 0.6
08/07:00am 8.5 3.7 -0.1 54 3.6 SW 15 19 8 10 1006.5 - 0.6
08/06:50am 8.0 2.0 -1.6 50 3.8 SW 20 26 11 14 1006.2 - 0.6
08/06:40am 7.9 1.6 -1.0 53 3.6 SW 22 26 12 14 1006.1 - 0.6
08/06:30am 8.2 1.5 -1.0 52 3.7 SW 24 30 13 16 1006.0 - 0.6
08/06:20am 8.2 1.5 -1.1 52 3.8 SSW 24 28 13 15 1006.0 - 0.6
08/06:10am 8.4 1.4 -0.8 52 3.8 SW 26 33 14 18 1006.0 - 0.6
08/06:00am 8.4 1.8 -0.5 53 3.7 SSW 24 28 13 15 1006.0 - 0.6
08/05:50am 8.3 1.7 -0.6 53 3.7 SSW 24 33 13 18 1005.8 - 0.6
08/05:40am 8.1 2.5 0.2 57 3.3 SSW 19 20 10 11 1005.8 - 0.6
08/05:30am 8.7 2.2 0.1 55 3.6 SW 24 30 13 16 1005.7 - 0.6
08/05:20am 8.7 2.5 -0.3 53 3.7 SSW 22 26 12 14 1005.6 - 0.6
08/05:10am 8.8 3.1 0.5 56 3.5 SW 20 24 11 13 1005.5 - 0.6
08/05:00am 9.1 2.6 0.2 53 3.8 SSW 24 30 13 16 1005.5 - 0.6
08/04:50am 8.9 2.8 0.1 54 3.7 SSW 22 26 12 14 1005.4 - 0.6
08/04:40am 8.9 3.2 0.7 56 3.5 SSW 20 26 11 14 1005.3 - 0.6
08/04:30am 9.1 3.7 1.3 58 3.4 SSW 19 22 10 12 1005.2 - 0.6
08/04:20am 9.4 3.4 1.2 56 3.6 SSW 22 26 12 14 1005.0 - 0.6
08/04:10am 9.7 3.7 0.9 54 3.8 SW 22 35 12 19 1004.9 - 0.6
08/04:00am 10.2 2.2 0.4 50 4.2 SW 32 43 17 23 1004.8 - 0.6
08/03:50am 10.6 2.5 -0.2 47 4.6 SW 32 37 17 20 1004.7 - 0.6
08/03:40am 10.8 2.0 -1.0 44 4.9 SW 35 54 19 29 1004.1 - 0.6
08/03:30am 10.8 2.7 -0.1 47 4.7 SSW 32 44 17 24 1004.6 - 0.6
08/03:20am 10.9 4.8 0.5 48 4.5 SSW 22 32 12 17 1004.4 - 0.6
08/03:10am 11.3 6.5 2.4 54 4.0 SW 17 32 9 17 1004.6 - 0.6
08/03:00am 11.4 5.2 2.3 53 4.1 SSW 24 32 13 17 1004.1 - 0.6
08/02:50am 11.8 6.2 3.2 55 4.0 SSW 22 32 12 17 1004.3 - 0.6
08/02:40am 12.0 6.8 3.8 57 3.9 SW 20 24 11 13 1004.5 - 0.6
08/02:30am 12.1 7.6 4.3 59 3.7 SW 17 22 9 12 1004.2 - 0.6
08/02:20am 12.5 8.3 5.6 63 3.4 SW 17 24 9 13 1004.4 - 0.6
08/02:10am 13.0 7.4 5.2 59 3.8 WSW 24 35 13 19 1004.3 - 0.6
08/02:00am 13.1 9.1 6.5 64 3.3 WSW 17 26 9 14 1004.5 - 0.6
08/01:50am 13.3 7.1 6.2 62 3.6 SW 28 44 15 24 1004.8 - 0.6
08/01:40am 13.3 10.3 7.9 70 2.8 WSW 13 24 7 13 1004.6 - 0.6
08/01:30am 13.3 9.2 7.9 70 2.8 SW 19 24 10 13 1004.6 - 0.6
08/01:20am 13.2 9.5 8.1 71 2.7 SW 17 22 9 12 1004.6 - 0.6
08/01:10am 13.3 10.5 8.6 73 2.5 SW 13 24 7 13 1004.6 - 0.6
08/01:00am 13.6 9.5 8.6 72 2.6 SW 20 24 11 13 1004.6 - 0.6
08/12:50am 13.6 9.1 8.7 72 2.6 WSW 22 35 12 19 1004.6 - 0.6
08/12:40am 13.6 11.2 8.8 73 2.5 WSW 11 17 6 9 1004.5 - 0.6
08/12:30am 13.6 10.0 8.5 71 2.7 WSW 17 26 9 14 1004.6 - 0.6
08/12:20am 13.5 10.5 9.4 76 2.2 SW 15 20 8 11 1004.7 - 0.6
08/12:10am 13.6 9.6 9.1 74 2.4 WSW 20 35 11 19 1004.4 - 0.6
08/12:00am 13.5 9.7 9.8 78 2.0 WSW 20 35 11 19 1004.9 - 0.6
 
Date/Time
EDT
Temp
°C
App
Temp
°C
Dew
Point
°C
Rel
Hum
%
Delta-T
°C
Wind Press
QNH
hPa
Press
MSL
hPa
Rain since
9am
mm
Dir  Spd
km/h
Gust
km/h
Spd
kts
Gust
kts
07/11:50pm 13.3 9.7 9.7 79 1.9 SW 19 26 10 14 1004.8 - 0.4
07/11:40pm 13.3 9.6 9.4 77 2.1 WSW 19 28 10 15 1005.2 - 0.4
07/11:30pm 12.8 10.9 10.4 85 1.3 SW 11 17 6 9 1005.2 - 0.4
07/11:20pm 12.8 10.6 10.8 88 1.1 SSW 13 22 7 12 1005.2 - 0.4
07/11:10pm 12.8 11.5 10.1 84 1.5 E 7 11 4 6 1005.0 - 0.4
07/11:00pm 12.6 10.1 9.7 82 1.6 NNE 13 19 7 10 1004.9 - 0.0
07/10:50pm 13.6 12.4 10.2 80 1.8 N 7 19 4 10 1004.9 - 0.0
07/10:40pm 13.8 12.5 9.1 73 2.5 NW 6 11 3 6 1005.2 - 0.0
07/10:30pm 13.9 12.9 8.9 72 2.7 WSW 4 7 2 4 1005.0 - 0.0
07/10:20pm 14.2 12.3 8.9 70 2.8 W 9 13 5 7 1005.2 - 0.0
07/10:10pm 14.0 12.6 8.9 71 2.7 W 6 13 3 7 1005.3 - 0.0
07/10:00pm 14.2 11.1 8.8 70 2.9 W 15 19 8 10 1005.4 - 0.0
07/09:50pm 13.5 10.3 8.4 71 2.7 WSW 15 28 8 15 1005.5 - 0.0
07/09:40pm 13.2 10.8 8.5 73 2.5 WSW 11 17 6 9 1005.4 - 0.0
07/09:30pm 13.4 10.7 8.9 74 2.4 WSW 13 19 7 10 1005.4 - 0.0
07/09:20pm 14.3 10.7 8.5 68 3.1 W 17 24 9 13 1005.5 - 0.0
07/09:10pm 14.3 11.5 6.8 60 3.8 WSW 11 17 6 9 1005.6 - 0.0
07/09:00pm 14.4 11.4 6.2 58 4.1 WSW 11 19 6 10 1005.6 - 0.0
07/08:50pm 14.5 11.9 6.0 56 4.3 WSW 9 17 5 9 1005.3 - 0.0
07/08:40pm 14.8 12.1 5.7 54 4.6 W 9 13 5 7 1005.4 - 0.0
07/08:30pm 14.8 12.0 5.3 53 4.7 W 9 13 5 7 1005.0 - 0.0
07/08:20pm 14.9 12.1 5.2 52 4.8 WNW 9 15 5 8 1004.9 - 0.0
07/08:10pm 15.1 12.0 5.4 52 4.8 NNW 11 17 6 9 1004.9 - 0.0
07/08:00pm 16.0 12.8 5.3 49 5.4 NW 11 13 6 7 1004.8 - 0.0
07/07:50pm 16.8 12.6 3.8 42 6.3 W 15 22 8 12 1004.8 - 0.0
07/07:40pm 17.3 13.7 4.8 43 6.2 W 13 20 7 11 1004.9 - 0.0
07/07:30pm 18.2 14.1 4.6 40 6.8 WNW 15 22 8 12 1004.8 - 0.0
07/07:20pm 18.6 15.3 4.3 38 7.1 WNW 11 22 6 12 1004.8 - 0.0
07/07:10pm 19.7 16.8 4.7 37 7.6 W 9 13 5 7 1004.7 - 0.0
07/07:00pm 20.0 16.9 5.6 39 7.4 W 11 20 6 11 1004.5 - 0.0
07/06:50pm 19.8 14.7 4.1 35 7.9 WSW 20 26 11 14 1004.4 - 0.0

Latest Capital City Observations: Canberra | Sydney | Melbourne | Brisbane | Adelaide | Perth | Hobart | Darwin

Other formats

Comma delimited format used in spreadsheet applications
http://www.bom.gov.au/fwo/IDN60903/IDN60903.99762.axf

JavaScript Object Notation format (JSON) in row-major order
http://www.bom.gov.au/fwo/IDN60903/IDN60903.99762.json

Data quality

Most of these data are generated automatically and are frequently updated. Quality checks on data are not normally performed. It is possible for incorrect values to appear. Refer to information at About Latest Weather Observations and please check the disclaimer before using these data.